UKLU/UDJ METAR and TAF weather

Enter ICAO airport designator
Station Type Date Time Source
UKLU METAR 2020/10/20 15:00 UTC NOAA

UKLU 201500Z 00000MPS 9999 NSC 13/06 Q1027 R10/190065 NOSIG


Station Type Date Time Source
UKLU Decoded METAR 2020/10/20 15:00 UTC NOAA

Uzhhorod, Ukraine (UKLU) 48-38-05N 022-15-53E
Oct 20, 2020 - 11:00 AM EDT / 2020.10.20 1500 UTC
Wind: Calm:0
Visibility: greater than 7 mile(s):0
Temperature: 55 F (13 C)
Dew Point: 42 F (6 C)
Relative Humidity: 62%
Pressure (altimeter): 30.33 in. Hg (1027 hPa)
ob: UKLU 201500Z 00000MPS 9999 NSC 13/06 Q1027 R10/190065 NOSIG
cycle: 15

Station Type Date Time Source
UKLU TAF 2020/10/05 06:21 UTC NOAA

TAF TAF UKLU 050505Z 0506/0518 VRB01MPS 9999 SCT040
TEMPO 0506/0512 14005G10MPS SCT030CB

Example: see airport list